EPPOEPZG

Guest
Details From EPPO - Lawica
To EPZG - Babimost
Flight Number -
Tags Routegen Generated
Created
Modified
Stats Distance 41 nm / 77 km
Max Altitude 100 ft / 30 m
Waypoints 5
Social Downloads 1
Likes 0
Share VATSIM

Download

Looking for another format? Having issues loading an existing format? Contact us
Advertisement - Login to hide

Notes

Departing runway 28 EPPO. Arriving runway 6 EPZG.

Route

EPPO +52.45_+016.69 +52.31_+016.31 +52.17_+015.92 EPZG

ID Type Via Altitude Latitude Longitude Leg Dist Tot Dist Heading (true) Name
O EPPO APT - 0 ft / 0 m 52.42494˚ 16.80609˚ - 0 nm - -
+52.45_+016.69 LATLON - 100 ft / 30 m 52.44676˚ 16.69291˚ 4 nm 4 nm 288° / 288° -
+52.31_+016.31 LATLON - 100 ft / 30 m 52.31053˚ 16.30729˚ 16 nm 20 nm 240° / 240° -
+52.17_+015.92 LATLON - 100 ft / 30 m 52.17430˚ 15.92166˚ 16 nm 37 nm 240° / 240° -
O EPZG APT - 0 ft / 0 m 52.14333˚ 15.81506˚ 4 nm 41 nm 245° / 245° -

Altitude Profile

Advertisement - Login to hide

EPPO

Details ICAO EPPO (POZ)
Name LAWICA
Region Poland
Timezone Europe/Warsaw (UTC+1.0)
Stats Elevation 308 ft / 94 m (AMSL)
Location 52.421566° 16.823549°
Runways 1
Magnetic Variation 4.734° E

METAR

EPPO 111330Z 13008KT CAVOK 07/03 Q0989 R10/29//95

Decode

TAF

TAF EPPO 111130Z 1112/1212 18010KT 9999 BKN040 PROB40 1113/1118 12007KT TEMPO 1206/1212 18020G35KT

Decode

Departure Runways

ID Width Length Bearing (true) Bearing (mag) Surface Threshold Offset Overrun Length
11 164 ft / 50 m 8,153 ft / 2,485 m 107.57° 102.84° Asphalt 0 ft / 0 m 0 ft / 0 m
29 164 ft / 50 m 8,153 ft / 2,485 m 287.59° 282.86° Asphalt 0 ft / 0 m 0 ft / 0 m

EPZG

Details ICAO EPZG (IEG)
Name ZIELONA GORA BABIMOST
Region Poland
Timezone Europe/Warsaw (UTC+1.0)
Stats Elevation 193 ft / 59 m (AMSL)
Location 52.138633° 15.798400°
Runways 1
Magnetic Variation 4.425° E

METAR

EPZG 111330Z 11007KT 080V140 CAVOK 07/04 Q0988

Decode

TAF

Not found

Destination Runways

ID Width Length Bearing (true) Bearing (mag) Surface Threshold Offset Overrun Length
06 197 ft / 60 m 8,169 ft / 2,490 m 64.50° 60.07° Concrete 0 ft / 0 m 0 ft / 0 m
24 197 ft / 60 m 8,169 ft / 2,490 m 244.52° 240.09° Concrete 0 ft / 0 m 0 ft / 0 m

Popular Alternatives